Saltillo, PA (17253)

6:30 AM EST on January 27, 2015 (GMT -0500)
Hill Valley | Change Station
CLOSE
Current Station
Personal Weather Station
Location: Mount Union, PA
Elevation: 633 ft
Nearby Weather Stations
Active Advisory: Winter Weather Advisory Active Notice: Public Information Statement

Elev 633 ft 40.35 °N, 77.90 °W | Updated 4 seconds ago

Snow
Snow
24.1 °F
Feels Like 24 °F
N
0.0
Wind Variable Wind from North
Gusts 0.0 mph

Today
High -- | Low -- °F
--% Chance of Precip.
Yesterday
High -- | Low -- °F
Precip. -- in
7:25 AM 5:24 PM
First Quarter, 53% visible
Pressure 29.84 in
Visibility 3.0 miles
Clouds Scattered Clouds 1600 ft
Overcast 2600 ft
Windchill 24 °F
Dew Point 15 °F
Humidity 69%
Rainfall 0.00 in
Snow Depth Not available.
UV 0 out of 12
Pollen .10 out of 12
Air Quality Not available.
Flu Activity Not available.
METAR KAOO 271053Z AUTO 31007KT 3SM -SN BR SCT016 OVC026 M06/M08 A2977 RMK AO2 SNB05 SLP105 P0000 T10611083

More Conditions Fewer Conditions

Pressure 29.84 in
Visibility 3.0 miles
Clouds Scattered Clouds 1600 ft
Overcast 2600 ft
Windchill 24 °F
Dew Point 15 °F
Humidity 69%
Rainfall 0.00 in
Snow Depth Not available.
UV 0 out of 12
Pollen .10 out of 12
Air Quality Not available.
Flu Activity Not available.
METAR KAOO 271053Z AUTO 31007KT 3SM -SN BR SCT016 OVC026 M06/M08 A2977 RMK AO2 SNB05 SLP105 P0000 T10611083

More Conditions Fewer Conditions

10-Day Weather Forecast

Almanac

Astronomy

Jan. 27, 2015 Rise Set
Actual Time
Civil Twilight
Nautical Twilight
Astronomical Twilight
Moon
Length of Visible Light
Length of Day
Tomorrow will be .
, % of the Moon is Illuminated

Today's Extremes

State Highs State Lows

Community

WunderPhotos

Upload Photos

1,790,564 photos uploaded!

WunderBlogs® & News

Nearby

Air Quality

  Air Quality AQ Index Pollutant
Not available.

Snow Depth

Station Depth Elevation

Earthquake Activity

City Distance Mag. Time & Date
Minimum magnitude displayed is 2.5.

Coastal Water Temperatures

Place Temperature

Nearby Weather Stations